sensor_id;sensor_type;location;lat;lon;timestamp;P1;durP1;ratioP1;P2;durP2;ratioP2
1402;SDS011;696;48.546;9.896;2023-06-19T00:00:41;6.90;;;5.03;;
1402;SDS011;696;48.546;9.896;2023-06-19T00:03:07;10.05;;;5.30;;
1402;SDS011;696;48.546;9.896;2023-06-19T00:05:32;9.35;;;5.55;;
1402;SDS011;696;48.546;9.896;2023-06-19T00:07:58;7.57;;;5.20;;
1402;SDS011;696;48.546;9.896;2023-06-19T00:10:23;10.32;;;5.22;;
1402;SDS011;696;48.546;9.896;2023-06-19T00:12:48;6.40;;;4.65;;
1402;SDS011;696;48.546;9.896;2023-06-19T00:15:14;9.68;;;5.68;;
1402;SDS011;696;48.546;9.896;2023-06-19T00:17:39;10.23;;;5.32;;
1402;SDS011;696;48.546;9.896;2023-06-19T00:20:05;11.10;;;5.63;;
1402;SDS011;696;48.546;9.896;2023-06-19T00:22:31;7.28;;;5.35;;
1402;SDS011;696;48.546;9.896;2023-06-19T00:24:56;7.07;;;5.43;;
1402;SDS011;696;48.546;9.896;2023-06-19T00:27:22;8.90;;;5.50;;
1402;SDS011;696;48.546;9.896;2023-06-19T00:29:49;7.63;;;5.43;;
1402;SDS011;696;48.546;9.896;2023-06-19T00:32:15;7.93;;;5.70;;
1402;SDS011;696;48.546;9.896;2023-06-19T00:34:40;13.93;;;5.43;;
1402;SDS011;696;48.546;9.896;2023-06-19T00:37:08;9.80;;;6.00;;
1402;SDS011;696;48.546;9.896;2023-06-19T00:39:34;8.73;;;6.10;;
1402;SDS011;696;48.546;9.896;2023-06-19T00:42:00;9.13;;;5.38;;
1402;SDS011;696;48.546;9.896;2023-06-19T00:44:26;6.75;;;5.18;;
1402;SDS011;696;48.546;9.896;2023-06-19T00:46:56;9.48;;;5.55;;
1402;SDS011;696;48.546;9.896;2023-06-19T00:49:23;9.38;;;5.68;;
1402;SDS011;696;48.546;9.896;2023-06-19T00:51:51;11.65;;;5.47;;
1402;SDS011;696;48.546;9.896;2023-06-19T00:54:17;6.90;;;5.43;;
1402;SDS011;696;48.546;9.896;2023-06-19T00:56:43;7.20;;;5.25;;
1402;SDS011;696;48.546;9.896;2023-06-19T00:59:14;9.13;;;5.97;;
1402;SDS011;696;48.546;9.896;2023-06-19T01:01:41;14.27;;;5.80;;
1402;SDS011;696;48.546;9.896;2023-06-19T01:04:07;8.75;;;5.90;;
1402;SDS011;696;48.546;9.896;2023-06-19T01:06:35;6.70;;;5.32;;
1402;SDS011;696;48.546;9.896;2023-06-19T01:09:08;8.57;;;5.55;;
1402;SDS011;696;48.546;9.896;2023-06-19T01:11:37;8.82;;;6.10;;
1402;SDS011;696;48.546;9.896;2023-06-19T01:14:08;7.03;;;5.10;;
1402;SDS011;696;48.546;9.896;2023-06-19T01:16:44;7.68;;;5.75;;
1402;SDS011;696;48.546;9.896;2023-06-19T01:19:10;8.35;;;5.75;;
1402;SDS011;696;48.546;9.896;2023-06-19T01:21:40;8.02;;;5.63;;
1402;SDS011;696;48.546;9.896;2023-06-19T01:24:06;11.88;;;5.40;;
1402;SDS011;696;48.546;9.896;2023-06-19T01:26:31;14.20;;;5.97;;
1402;SDS011;696;48.546;9.896;2023-06-19T01:28:57;8.75;;;5.60;;
1402;SDS011;696;48.546;9.896;2023-06-19T01:32:10;11.70;;;5.55;;
1402;SDS011;696;48.546;9.896;2023-06-19T01:34:25;6.32;;;5.28;;
1402;SDS011;696;48.546;9.896;2023-06-19T01:36:52;7.88;;;5.70;;
1402;SDS011;696;48.546;9.896;2023-06-19T01:39:22;10.65;;;5.78;;
1402;SDS011;696;48.546;9.896;2023-06-19T01:41:48;13.25;;;6.28;;
1402;SDS011;696;48.546;9.896;2023-06-19T01:44:13;8.27;;;5.63;;
1402;SDS011;696;48.546;9.896;2023-06-19T01:46:39;6.95;;;5.68;;
1402;SDS011;696;48.546;9.896;2023-06-19T01:49:08;9.77;;;6.10;;
1402;SDS011;696;48.546;9.896;2023-06-19T01:51:34;8.00;;;6.03;;
1402;SDS011;696;48.546;9.896;2023-06-19T01:54:00;7.85;;;5.75;;
1402;SDS011;696;48.546;9.896;2023-06-19T01:56:26;7.43;;;5.85;;
1402;SDS011;696;48.546;9.896;2023-06-19T01:58:51;7.18;;;5.28;;
1402;SDS011;696;48.546;9.896;2023-06-19T02:01:16;9.35;;;5.55;;
1402;SDS011;696;48.546;9.896;2023-06-19T02:03:42;8.50;;;5.57;;
1402;SDS011;696;48.546;9.896;2023-06-19T02:06:07;7.15;;;5.28;;
1402;SDS011;696;48.546;9.896;2023-06-19T02:08:32;7.32;;;5.93;;
1402;SDS011;696;48.546;9.896;2023-06-19T02:10:58;8.13;;;5.28;;
1402;SDS011;696;48.546;9.896;2023-06-19T02:13:23;9.45;;;5.32;;
1402;SDS011;696;48.546;9.896;2023-06-19T02:15:48;5.70;;;4.65;;
1402;SDS011;696;48.546;9.896;2023-06-19T02:18:14;8.93;;;5.93;;
1402;SDS011;696;48.546;9.896;2023-06-19T02:20:39;6.82;;;4.90;;
1402;SDS011;696;48.546;9.896;2023-06-19T02:23:05;15.07;;;6.20;;
1402;SDS011;696;48.546;9.896;2023-06-19T02:25:30;9.43;;;5.32;;
1402;SDS011;696;48.546;9.896;2023-06-19T02:27:55;7.35;;;4.85;;
1402;SDS011;696;48.546;9.896;2023-06-19T02:30:21;9.27;;;5.55;;
1402;SDS011;696;48.546;9.896;2023-06-19T02:32:47;10.25;;;5.68;;
1402;SDS011;696;48.546;9.896;2023-06-19T02:35:12;16.00;;;5.30;;
1402;SDS011;696;48.546;9.896;2023-06-19T02:37:39;7.40;;;5.65;;
1402;SDS011;696;48.546;9.896;2023-06-19T02:40:05;7.55;;;5.55;;
1402;SDS011;696;48.546;9.896;2023-06-19T02:42:31;9.57;;;6.45;;
1402;SDS011;696;48.546;9.896;2023-06-19T02:44:57;8.55;;;5.63;;
1402;SDS011;696;48.546;9.896;2023-06-19T02:47:28;9.60;;;6.13;;
1402;SDS011;696;48.546;9.896;2023-06-19T02:49:54;7.97;;;5.85;;
1402;SDS011;696;48.546;9.896;2023-06-19T02:52:19;11.45;;;6.13;;
1402;SDS011;696;48.546;9.896;2023-06-19T02:54:44;8.68;;;6.05;;
1402;SDS011;696;48.546;9.896;2023-06-19T02:57:10;6.75;;;5.20;;
1402;SDS011;696;48.546;9.896;2023-06-19T02:59:35;8.70;;;5.88;;
1402;SDS011;696;48.546;9.896;2023-06-19T03:02:00;10.95;;;5.72;;
1402;SDS011;696;48.546;9.896;2023-06-19T03:04:26;7.65;;;5.43;;
1402;SDS011;696;48.546;9.896;2023-06-19T03:06:51;10.40;;;6.18;;
1402;SDS011;696;48.546;9.896;2023-06-19T03:09:16;8.00;;;5.60;;
1402;SDS011;696;48.546;9.896;2023-06-19T03:11:42;7.43;;;5.53;;
1402;SDS011;696;48.546;9.896;2023-06-19T03:14:07;8.98;;;5.68;;
1402;SDS011;696;48.546;9.896;2023-06-19T03:16:34;8.65;;;5.43;;
1402;SDS011;696;48.546;9.896;2023-06-19T03:19:00;9.43;;;5.75;;
1402;SDS011;696;48.546;9.896;2023-06-19T03:21:25;13.93;;;6.32;;
1402;SDS011;696;48.546;9.896;2023-06-19T03:23:51;7.03;;;5.88;;
1402;SDS011;696;48.546;9.896;2023-06-19T03:26:17;9.27;;;5.60;;
1402;SDS011;696;48.546;9.896;2023-06-19T03:28:43;11.10;;;5.38;;
1402;SDS011;696;48.546;9.896;2023-06-19T03:31:08;9.30;;;6.35;;
1402;SDS011;696;48.546;9.896;2023-06-19T03:33:34;7.20;;;5.57;;
1402;SDS011;696;48.546;9.896;2023-06-19T03:35:59;7.55;;;5.25;;
1402;SDS011;696;48.546;9.896;2023-06-19T03:38:25;9.07;;;5.88;;
1402;SDS011;696;48.546;9.896;2023-06-19T03:40:50;7.40;;;5.40;;
1402;SDS011;696;48.546;9.896;2023-06-19T03:43:15;9.40;;;6.30;;
1402;SDS011;696;48.546;9.896;2023-06-19T03:45:41;11.93;;;6.00;;
1402;SDS011;696;48.546;9.896;2023-06-19T03:48:06;7.47;;;5.75;;
1402;SDS011;696;48.546;9.896;2023-06-19T03:50:31;7.43;;;5.53;;
1402;SDS011;696;48.546;9.896;2023-06-19T03:52:57;8.35;;;5.43;;
1402;SDS011;696;48.546;9.896;2023-06-19T03:55:22;10.60;;;5.43;;
1402;SDS011;696;48.546;9.896;2023-06-19T03:57:47;6.95;;;5.35;;
1402;SDS011;696;48.546;9.896;2023-06-19T04:00:13;6.97;;;5.25;;
1402;SDS011;696;48.546;9.896;2023-06-19T04:02:39;13.60;;;5.60;;
1402;SDS011;696;48.546;9.896;2023-06-19T04:05:05;7.85;;;5.40;;
1402;SDS011;696;48.546;9.896;2023-06-19T04:07:31;6.35;;;5.28;;
1402;SDS011;696;48.546;9.896;2023-06-19T04:09:57;9.18;;;5.10;;
1402;SDS011;696;48.546;9.896;2023-06-19T04:12:22;6.90;;;5.20;;
1402;SDS011;696;48.546;9.896;2023-06-19T04:14:48;7.68;;;5.07;;
1402;SDS011;696;48.546;9.896;2023-06-19T04:17:13;7.30;;;5.90;;
1402;SDS011;696;48.546;9.896;2023-06-19T04:19:39;12.68;;;6.15;;
1402;SDS011;696;48.546;9.896;2023-06-19T04:22:04;8.00;;;5.20;;
1402;SDS011;696;48.546;9.896;2023-06-19T04:24:30;7.40;;;5.20;;
1402;SDS011;696;48.546;9.896;2023-06-19T04:26:55;9.82;;;5.30;;
1402;SDS011;696;48.546;9.896;2023-06-19T04:29:21;6.75;;;5.63;;
1402;SDS011;696;48.546;9.896;2023-06-19T04:31:46;13.73;;;5.22;;
1402;SDS011;696;48.546;9.896;2023-06-19T04:34:18;9.30;;;5.32;;
1402;SDS011;696;48.546;9.896;2023-06-19T04:36:46;8.75;;;5.50;;
1402;SDS011;696;48.546;9.896;2023-06-19T04:39:12;9.32;;;6.32;;
1402;SDS011;696;48.546;9.896;2023-06-19T04:41:38;10.48;;;5.78;;
1402;SDS011;696;48.546;9.896;2023-06-19T04:44:06;12.55;;;7.47;;
1402;SDS011;696;48.546;9.896;2023-06-19T04:46:32;14.18;;;6.63;;
1402;SDS011;696;48.546;9.896;2023-06-19T04:48:58;8.18;;;6.20;;
1402;SDS011;696;48.546;9.896;2023-06-19T04:51:23;7.32;;;5.63;;
1402;SDS011;696;48.546;9.896;2023-06-19T04:53:48;9.88;;;7.38;;
1402;SDS011;696;48.546;9.896;2023-06-19T04:56:14;12.60;;;6.28;;
1402;SDS011;696;48.546;9.896;2023-06-19T04:58:40;10.88;;;6.20;;
1402;SDS011;696;48.546;9.896;2023-06-19T05:01:11;9.30;;;6.07;;
1402;SDS011;696;48.546;9.896;2023-06-19T05:03:37;12.50;;;6.10;;
1402;SDS011;696;48.546;9.896;2023-06-19T05:06:03;8.57;;;5.78;;
1402;SDS011;696;48.546;9.896;2023-06-19T05:08:28;7.72;;;5.63;;
1402;SDS011;696;48.546;9.896;2023-06-19T05:10:53;8.50;;;6.05;;
1402;SDS011;696;48.546;9.896;2023-06-19T05:13:19;11.65;;;5.45;;
1402;SDS011;696;48.546;9.896;2023-06-19T05:15:45;7.85;;;5.43;;
1402;SDS011;696;48.546;9.896;2023-06-19T05:18:10;7.70;;;5.57;;
1402;SDS011;696;48.546;9.896;2023-06-19T05:20:36;9.00;;;4.95;;
1402;SDS011;696;48.546;9.896;2023-06-19T05:23:01;6.75;;;5.20;;
1402;SDS011;696;48.546;9.896;2023-06-19T05:25:26;7.75;;;5.63;;
1402;SDS011;696;48.546;9.896;2023-06-19T05:27:52;8.93;;;5.43;;
1402;SDS011;696;48.546;9.896;2023-06-19T05:30:18;7.82;;;5.30;;
1402;SDS011;696;48.546;9.896;2023-06-19T05:32:43;10.25;;;5.82;;
1402;SDS011;696;48.546;9.896;2023-06-19T05:35:09;10.30;;;5.53;;
1402;SDS011;696;48.546;9.896;2023-06-19T05:37:34;13.73;;;5.72;;
1402;SDS011;696;48.546;9.896;2023-06-19T05:39:59;16.30;;;5.47;;
1402;SDS011;696;48.546;9.896;2023-06-19T05:42:25;8.35;;;4.82;;
1402;SDS011;696;48.546;9.896;2023-06-19T05:44:50;7.50;;;4.82;;
1402;SDS011;696;48.546;9.896;2023-06-19T05:47:16;6.32;;;4.85;;
1402;SDS011;696;48.546;9.896;2023-06-19T05:49:42;7.55;;;4.20;;
1402;SDS011;696;48.546;9.896;2023-06-19T05:52:08;8.80;;;5.25;;
1402;SDS011;696;48.546;9.896;2023-06-19T05:54:33;7.20;;;4.63;;
1402;SDS011;696;48.546;9.896;2023-06-19T05:56:58;8.93;;;5.07;;
1402;SDS011;696;48.546;9.896;2023-06-19T05:59:24;6.95;;;4.72;;
1402;SDS011;696;48.546;9.896;2023-06-19T06:01:49;8.73;;;4.53;;
1402;SDS011;696;48.546;9.896;2023-06-19T06:04:18;7.18;;;4.55;;
1402;SDS011;696;48.546;9.896;2023-06-19T06:06:43;6.00;;;4.40;;
1402;SDS011;696;48.546;9.896;2023-06-19T06:09:09;6.50;;;4.50;;
1402;SDS011;696;48.546;9.896;2023-06-19T06:11:37;6.55;;;4.05;;
1402;SDS011;696;48.546;9.896;2023-06-19T06:14:02;12.10;;;3.67;;
1402;SDS011;696;48.546;9.896;2023-06-19T06:16:27;5.53;;;3.83;;
1402;SDS011;696;48.546;9.896;2023-06-19T06:18:53;5.50;;;3.70;;
1402;SDS011;696;48.546;9.896;2023-06-19T06:21:18;4.97;;;3.42;;
1402;SDS011;696;48.546;9.896;2023-06-19T06:23:43;7.70;;;4.63;;
1402;SDS011;696;48.546;9.896;2023-06-19T06:26:10;5.28;;;4.15;;
1402;SDS011;696;48.546;9.896;2023-06-19T06:28:35;6.50;;;4.43;;
1402;SDS011;696;48.546;9.896;2023-06-19T06:31:01;7.38;;;4.38;;
1402;SDS011;696;48.546;9.896;2023-06-19T06:33:26;4.90;;;3.70;;
1402;SDS011;696;48.546;9.896;2023-06-19T06:35:54;7.07;;;4.57;;
1402;SDS011;696;48.546;9.896;2023-06-19T06:38:19;8.68;;;4.97;;
1402;SDS011;696;48.546;9.896;2023-06-19T06:40:45;8.13;;;4.40;;
1402;SDS011;696;48.546;9.896;2023-06-19T06:43:11;5.82;;;4.38;;
1402;SDS011;696;48.546;9.896;2023-06-19T06:45:36;5.72;;;4.32;;
1402;SDS011;696;48.546;9.896;2023-06-19T06:48:07;5.38;;;3.40;;
1402;SDS011;696;48.546;9.896;2023-06-19T06:50:32;4.32;;;2.88;;
1402;SDS011;696;48.546;9.896;2023-06-19T06:52:57;5.63;;;3.53;;
1402;SDS011;696;48.546;9.896;2023-06-19T06:55:23;3.75;;;2.95;;
1402;SDS011;696;48.546;9.896;2023-06-19T06:57:49;3.75;;;2.78;;
1402;SDS011;696;48.546;9.896;2023-06-19T07:00:14;3.20;;;2.50;;
1402;SDS011;696;48.546;9.896;2023-06-19T07:05:06;3.42;;;2.53;;
1402;SDS011;696;48.546;9.896;2023-06-19T07:07:31;5.10;;;2.40;;
1402;SDS011;696;48.546;9.896;2023-06-19T07:09:57;2.85;;;2.55;;
1402;SDS011;696;48.546;9.896;2023-06-19T07:12:22;4.47;;;2.50;;
1402;SDS011;696;48.546;9.896;2023-06-19T07:14:47;3.08;;;2.67;;
1402;SDS011;696;48.546;9.896;2023-06-19T07:17:13;4.72;;;3.00;;
1402;SDS011;696;48.546;9.896;2023-06-19T07:19:38;5.47;;;2.85;;
1402;SDS011;696;48.546;9.896;2023-06-19T07:22:04;3.35;;;2.83;;
1402;SDS011;696;48.546;9.896;2023-06-19T07:24:29;3.97;;;2.60;;
1402;SDS011;696;48.546;9.896;2023-06-19T07:26:54;4.55;;;2.95;;
1402;SDS011;696;48.546;9.896;2023-06-19T07:29:21;3.10;;;2.80;;
1402;SDS011;696;48.546;9.896;2023-06-19T07:31:47;3.25;;;2.75;;
1402;SDS011;696;48.546;9.896;2023-06-19T07:34:12;16.33;;;3.08;;
1402;SDS011;696;48.546;9.896;2023-06-19T07:36:38;6.78;;;2.83;;
1402;SDS011;696;48.546;9.896;2023-06-19T07:39:04;2.83;;;2.58;;
1402;SDS011;696;48.546;9.896;2023-06-19T07:41:29;9.25;;;2.67;;
1402;SDS011;696;48.546;9.896;2023-06-19T07:43:55;3.13;;;2.83;;
1402;SDS011;696;48.546;9.896;2023-06-19T07:46:20;4.72;;;3.20;;
1402;SDS011;696;48.546;9.896;2023-06-19T07:48:45;4.78;;;3.10;;
1402;SDS011;696;48.546;9.896;2023-06-19T07:51:11;4.00;;;3.08;;
1402;SDS011;696;48.546;9.896;2023-06-19T07:53:36;5.57;;;3.10;;
1402;SDS011;696;48.546;9.896;2023-06-19T07:56:02;4.03;;;2.75;;
1402;SDS011;696;48.546;9.896;2023-06-19T07:58:28;3.63;;;2.78;;
1402;SDS011;696;48.546;9.896;2023-06-19T08:00:54;6.75;;;3.38;;
1402;SDS011;696;48.546;9.896;2023-06-19T08:03:20;3.70;;;2.97;;
1402;SDS011;696;48.546;9.896;2023-06-19T08:05:46;3.75;;;2.90;;
1402;SDS011;696;48.546;9.896;2023-06-19T08:08:12;4.63;;;2.88;;
1402;SDS011;696;48.546;9.896;2023-06-19T08:10:37;2.90;;;2.60;;
1402;SDS011;696;48.546;9.896;2023-06-19T08:13:02;5.55;;;3.10;;
1402;SDS011;696;48.546;9.896;2023-06-19T08:15:28;5.97;;;3.10;;
1402;SDS011;696;48.546;9.896;2023-06-19T08:17:53;5.45;;;2.22;;
1402;SDS011;696;48.546;9.896;2023-06-19T08:20:18;3.45;;;2.42;;
1402;SDS011;696;48.546;9.896;2023-06-19T08:22:45;3.22;;;2.60;;
1402;SDS011;696;48.546;9.896;2023-06-19T08:25:10;3.47;;;2.95;;
1402;SDS011;696;48.546;9.896;2023-06-19T08:27:36;4.13;;;2.65;;
1402;SDS011;696;48.546;9.896;2023-06-19T08:30:01;11.15;;;2.83;;
1402;SDS011;696;48.546;9.896;2023-06-19T08:32:26;4.75;;;2.90;;
1402;SDS011;696;48.546;9.896;2023-06-19T08:34:52;3.33;;;3.03;;
1402;SDS011;696;48.546;9.896;2023-06-19T08:37:17;2.78;;;2.45;;
1402;SDS011;696;48.546;9.896;2023-06-19T08:39:43;3.58;;;2.70;;
1402;SDS011;696;48.546;9.896;2023-06-19T08:42:09;3.88;;;2.60;;
1402;SDS011;696;48.546;9.896;2023-06-19T08:44:35;4.13;;;2.65;;
1402;SDS011;696;48.546;9.896;2023-06-19T08:47:04;3.95;;;2.90;;
1402;SDS011;696;48.546;9.896;2023-06-19T08:49:30;2.70;;;2.30;;
1402;SDS011;696;48.546;9.896;2023-06-19T08:51:58;3.65;;;2.40;;
1402;SDS011;696;48.546;9.896;2023-06-19T08:54:23;4.55;;;2.63;;
1402;SDS011;696;48.546;9.896;2023-06-19T08:56:50;4.45;;;2.80;;
1402;SDS011;696;48.546;9.896;2023-06-19T08:59:18;5.05;;;2.38;;
1402;SDS011;696;48.546;9.896;2023-06-19T09:01:47;3.40;;;2.30;;
1402;SDS011;696;48.546;9.896;2023-06-19T09:04:18;3.08;;;2.10;;
1402;SDS011;696;48.546;9.896;2023-06-19T09:06:54;6.55;;;2.42;;
1402;SDS011;696;48.546;9.896;2023-06-19T09:09:22;3.00;;;2.35;;
1402;SDS011;696;48.546;9.896;2023-06-19T09:14:35;4.10;;;2.10;;
1402;SDS011;696;48.546;9.896;2023-06-19T09:17:06;2.78;;;2.13;;
1402;SDS011;696;48.546;9.896;2023-06-19T09:19:33;3.70;;;2.45;;
1402;SDS011;696;48.546;9.896;2023-06-19T09:22:02;6.13;;;2.40;;
1402;SDS011;696;48.546;9.896;2023-06-19T09:24:35;3.58;;;2.28;;
1402;SDS011;696;48.546;9.896;2023-06-19T09:27:08;2.28;;;2.03;;
1402;SDS011;696;48.546;9.896;2023-06-19T09:29:43;2.67;;;1.80;;
1402;SDS011;696;48.546;9.896;2023-06-19T09:34:48;2.30;;;1.10;;
1402;SDS011;696;48.546;9.896;2023-06-19T09:37:16;1.88;;;1.30;;
1402;SDS011;696;48.546;9.896;2023-06-19T09:39:56;4.15;;;1.52;;
1402;SDS011;696;48.546;9.896;2023-06-19T09:42:33;3.13;;;1.55;;
1402;SDS011;696;48.546;9.896;2023-06-19T09:45:02;6.38;;;1.63;;
1402;SDS011;696;48.546;9.896;2023-06-19T09:47:33;1.60;;;1.43;;
1402;SDS011;696;48.546;9.896;2023-06-19T09:50:02;2.53;;;1.40;;
1402;SDS011;696;48.546;9.896;2023-06-19T09:52:28;3.00;;;1.50;;
1402;SDS011;696;48.546;9.896;2023-06-19T09:54:54;3.03;;;1.30;;
1402;SDS011;696;48.546;9.896;2023-06-19T09:57:20;1.33;;;1.08;;
1402;SDS011;696;48.546;9.896;2023-06-19T09:59:52;1.52;;;1.33;;
1402;SDS011;696;48.546;9.896;2023-06-19T10:02:20;1.30;;;1.20;;
1402;SDS011;696;48.546;9.896;2023-06-19T10:04:52;1.10;;;1.00;;
1402;SDS011;696;48.546;9.896;2023-06-19T10:07:32;3.30;;;1.10;;
1402;SDS011;696;48.546;9.896;2023-06-19T10:09:59;1.65;;;1.02;;
1402;SDS011;696;48.546;9.896;2023-06-19T10:12:34;2.50;;;1.08;;
1402;SDS011;696;48.546;9.896;2023-06-19T10:15:10;1.90;;;1.17;;
1402;SDS011;696;48.546;9.896;2023-06-19T10:17:38;1.25;;;1.15;;
1402;SDS011;696;48.546;9.896;2023-06-19T10:20:17;0.98;;;0.90;;
1402;SDS011;696;48.546;9.896;2023-06-19T10:22:56;1.17;;;1.00;;
1402;SDS011;696;48.546;9.896;2023-06-19T10:25:28;1.35;;;1.10;;
1402;SDS011;696;48.546;9.896;2023-06-19T10:27:56;2.05;;;1.40;;
1402;SDS011;696;48.546;9.896;2023-06-19T10:30:22;1.88;;;1.30;;
1402;SDS011;696;48.546;9.896;2023-06-19T10:32:48;1.77;;;1.52;;
1402;SDS011;696;48.546;9.896;2023-06-19T10:35:14;1.65;;;1.35;;
1402;SDS011;696;48.546;9.896;2023-06-19T10:37:39;2.17;;;1.67;;
1402;SDS011;696;48.546;9.896;2023-06-19T10:40:05;1.60;;;1.50;;
1402;SDS011;696;48.546;9.896;2023-06-19T10:42:42;2.78;;;1.50;;
1402;SDS011;696;48.546;9.896;2023-06-19T10:45:09;1.70;;;1.50;;
1402;SDS011;696;48.546;9.896;2023-06-19T10:47:37;2.22;;;1.65;;
1402;SDS011;696;48.546;9.896;2023-06-19T10:50:03;1.40;;;1.30;;
1402;SDS011;696;48.546;9.896;2023-06-19T10:52:29;3.03;;;1.70;;
1402;SDS011;696;48.546;9.896;2023-06-19T10:54:55;1.65;;;1.55;;
1402;SDS011;696;48.546;9.896;2023-06-19T10:57:28;4.28;;;2.05;;
1402;SDS011;696;48.546;9.896;2023-06-19T10:59:57;3.17;;;2.00;;
1402;SDS011;696;48.546;9.896;2023-06-19T11:02:23;2.38;;;1.48;;
1402;SDS011;696;48.546;9.896;2023-06-19T11:04:51;2.42;;;1.48;;
1402;SDS011;696;48.546;9.896;2023-06-19T11:07:17;2.55;;;1.50;;
1402;SDS011;696;48.546;9.896;2023-06-19T11:09:43;1.58;;;1.35;;
1402;SDS011;696;48.546;9.896;2023-06-19T11:12:08;3.10;;;1.77;;
1402;SDS011;696;48.546;9.896;2023-06-19T11:14:34;1.85;;;1.38;;
1402;SDS011;696;48.546;9.896;2023-06-19T11:17:05;2.08;;;1.60;;
1402;SDS011;696;48.546;9.896;2023-06-19T11:19:30;2.33;;;1.67;;
1402;SDS011;696;48.546;9.896;2023-06-19T11:21:58;1.75;;;1.20;;
1402;SDS011;696;48.546;9.896;2023-06-19T11:24:26;2.40;;;1.42;;
1402;SDS011;696;48.546;9.896;2023-06-19T11:26:51;2.30;;;1.40;;
1402;SDS011;696;48.546;9.896;2023-06-19T11:29:17;1.80;;;1.15;;
1402;SDS011;696;48.546;9.896;2023-06-19T11:31:43;2.05;;;1.30;;
1402;SDS011;696;48.546;9.896;2023-06-19T11:34:09;1.95;;;1.40;;
1402;SDS011;696;48.546;9.896;2023-06-19T11:36:38;1.70;;;1.15;;
1402;SDS011;696;48.546;9.896;2023-06-19T11:39:04;1.13;;;1.02;;
1402;SDS011;696;48.546;9.896;2023-06-19T11:41:35;2.15;;;1.50;;
1402;SDS011;696;48.546;9.896;2023-06-19T11:44:04;1.25;;;1.08;;
1402;SDS011;696;48.546;9.896;2023-06-19T11:46:30;2.33;;;1.30;;
1402;SDS011;696;48.546;9.896;2023-06-19T11:49:09;1.17;;;1.08;;
1402;SDS011;696;48.546;9.896;2023-06-19T11:51:38;1.92;;;1.30;;
1402;SDS011;696;48.546;9.896;2023-06-19T11:54:05;2.15;;;1.52;;
1402;SDS011;696;48.546;9.896;2023-06-19T11:56:33;1.75;;;1.33;;
1402;SDS011;696;48.546;9.896;2023-06-19T11:58:59;1.10;;;1.00;;
1402;SDS011;696;48.546;9.896;2023-06-19T12:01:24;1.25;;;1.05;;
1402;SDS011;696;48.546;9.896;2023-06-19T12:03:51;1.75;;;1.25;;
1402;SDS011;696;48.546;9.896;2023-06-19T12:06:16;1.88;;;1.33;;
1402;SDS011;696;48.546;9.896;2023-06-19T12:08:43;1.70;;;1.05;;
1402;SDS011;696;48.546;9.896;2023-06-19T12:11:08;1.23;;;1.10;;
1402;SDS011;696;48.546;9.896;2023-06-19T12:13:35;1.38;;;1.05;;
1402;SDS011;696;48.546;9.896;2023-06-19T12:16:00;3.10;;;0.80;;
1402;SDS011;696;48.546;9.896;2023-06-19T12:18:26;1.83;;;1.13;;
1402;SDS011;696;48.546;9.896;2023-06-19T12:20:52;1.55;;;1.00;;
1402;SDS011;696;48.546;9.896;2023-06-19T12:23:17;1.48;;;1.20;;
1402;SDS011;696;48.546;9.896;2023-06-19T12:25:42;2.10;;;1.08;;
1402;SDS011;696;48.546;9.896;2023-06-19T12:28:08;3.35;;;1.27;;
1402;SDS011;696;48.546;9.896;2023-06-19T12:30:34;1.42;;;0.98;;
1402;SDS011;696;48.546;9.896;2023-06-19T12:33:00;2.63;;;1.50;;
1402;SDS011;696;48.546;9.896;2023-06-19T12:35:28;2.28;;;1.30;;
1402;SDS011;696;48.546;9.896;2023-06-19T12:37:53;3.30;;;1.10;;
1402;SDS011;696;48.546;9.896;2023-06-19T12:40:20;1.95;;;1.30;;
1402;SDS011;696;48.546;9.896;2023-06-19T12:42:45;1.20;;;1.10;;
1402;SDS011;696;48.546;9.896;2023-06-19T12:45:11;2.78;;;1.35;;
1402;SDS011;696;48.546;9.896;2023-06-19T12:47:37;2.38;;;1.38;;
1402;SDS011;696;48.546;9.896;2023-06-19T12:50:02;2.15;;;1.25;;
1402;SDS011;696;48.546;9.896;2023-06-19T12:52:28;1.63;;;1.17;;
1402;SDS011;696;48.546;9.896;2023-06-19T12:54:53;1.48;;;1.00;;
1402;SDS011;696;48.546;9.896;2023-06-19T12:57:19;1.30;;;1.00;;
1402;SDS011;696;48.546;9.896;2023-06-19T12:59:44;1.27;;;1.17;;
1402;SDS011;696;48.546;9.896;2023-06-19T13:02:09;3.35;;;1.00;;
1402;SDS011;696;48.546;9.896;2023-06-19T13:04:35;1.55;;;1.40;;
1402;SDS011;696;48.546;9.896;2023-06-19T13:07:03;2.53;;;1.33;;
1402;SDS011;696;48.546;9.896;2023-06-19T13:09:28;2.45;;;1.50;;
1402;SDS011;696;48.546;9.896;2023-06-19T13:11:54;1.80;;;1.23;;
1402;SDS011;696;48.546;9.896;2023-06-19T13:14:20;4.13;;;1.25;;
1402;SDS011;696;48.546;9.896;2023-06-19T13:16:45;1.27;;;1.17;;
1402;SDS011;696;48.546;9.896;2023-06-19T13:19:11;4.22;;;1.73;;
1402;SDS011;696;48.546;9.896;2023-06-19T13:21:36;1.77;;;1.25;;
1402;SDS011;696;48.546;9.896;2023-06-19T13:24:01;2.58;;;1.73;;
1402;SDS011;696;48.546;9.896;2023-06-19T13:26:27;1.30;;;1.05;;
1402;SDS011;696;48.546;9.896;2023-06-19T13:28:52;1.83;;;1.42;;
1402;SDS011;696;48.546;9.896;2023-06-19T13:31:17;1.63;;;1.40;;
1402;SDS011;696;48.546;9.896;2023-06-19T13:33:43;1.73;;;1.58;;
1402;SDS011;696;48.546;9.896;2023-06-19T13:36:08;2.45;;;1.48;;
1402;SDS011;696;48.546;9.896;2023-06-19T13:38:33;1.90;;;1.25;;
1402;SDS011;696;48.546;9.896;2023-06-19T13:40:59;2.47;;;1.60;;
1402;SDS011;696;48.546;9.896;2023-06-19T13:43:24;2.28;;;1.70;;
1402;SDS011;696;48.546;9.896;2023-06-19T13:45:50;1.98;;;1.45;;
1402;SDS011;696;48.546;9.896;2023-06-19T13:48:15;1.38;;;1.23;;
1402;SDS011;696;48.546;9.896;2023-06-19T13:50:41;1.80;;;1.50;;
1402;SDS011;696;48.546;9.896;2023-06-19T13:53:07;1.60;;;1.42;;
1402;SDS011;696;48.546;9.896;2023-06-19T13:55:32;1.52;;;1.30;;
1402;SDS011;696;48.546;9.896;2023-06-19T13:57:57;4.18;;;2.00;;
1402;SDS011;696;48.546;9.896;2023-06-19T14:00:23;3.20;;;1.70;;
1402;SDS011;696;48.546;9.896;2023-06-19T14:02:48;1.75;;;1.50;;
1402;SDS011;696;48.546;9.896;2023-06-19T14:05:15;2.08;;;1.70;;
1402;SDS011;696;48.546;9.896;2023-06-19T14:07:41;1.40;;;1.30;;
1402;SDS011;696;48.546;9.896;2023-06-19T14:10:07;2.80;;;1.42;;
1402;SDS011;696;48.546;9.896;2023-06-19T14:12:33;5.90;;;1.55;;
1402;SDS011;696;48.546;9.896;2023-06-19T14:14:58;1.40;;;1.23;;
1402;SDS011;696;48.546;9.896;2023-06-19T14:17:23;2.65;;;1.80;;
1402;SDS011;696;48.546;9.896;2023-06-19T14:19:49;1.50;;;1.40;;
1402;SDS011;696;48.546;9.896;2023-06-19T14:22:18;2.05;;;1.75;;
1402;SDS011;696;48.546;9.896;2023-06-19T14:24:44;3.20;;;1.80;;
1402;SDS011;696;48.546;9.896;2023-06-19T14:27:09;1.80;;;1.67;;
1402;SDS011;696;48.546;9.896;2023-06-19T14:29:34;2.97;;;1.90;;
1402;SDS011;696;48.546;9.896;2023-06-19T14:32:00;3.20;;;1.48;;
1402;SDS011;696;48.546;9.896;2023-06-19T14:34:25;3.63;;;1.75;;
1402;SDS011;696;48.546;9.896;2023-06-19T14:36:50;1.52;;;1.42;;
1402;SDS011;696;48.546;9.896;2023-06-19T14:39:16;1.92;;;1.52;;
1402;SDS011;696;48.546;9.896;2023-06-19T14:41:42;1.95;;;1.50;;
1402;SDS011;696;48.546;9.896;2023-06-19T14:44:07;2.33;;;1.70;;
1402;SDS011;696;48.546;9.896;2023-06-19T14:46:32;1.80;;;1.67;;
1402;SDS011;696;48.546;9.896;2023-06-19T14:48:58;4.60;;;1.58;;
1402;SDS011;696;48.546;9.896;2023-06-19T14:51:26;1.75;;;1.63;;
1402;SDS011;696;48.546;9.896;2023-06-19T14:53:51;3.15;;;1.90;;
1402;SDS011;696;48.546;9.896;2023-06-19T14:56:17;1.90;;;1.70;;
1402;SDS011;696;48.546;9.896;2023-06-19T14:58:42;3.35;;;1.85;;
1402;SDS011;696;48.546;9.896;2023-06-19T15:01:09;2.90;;;1.67;;
1402;SDS011;696;48.546;9.896;2023-06-19T15:03:35;2.03;;;1.83;;
1402;SDS011;696;48.546;9.896;2023-06-19T15:06:00;2.33;;;1.70;;
1402;SDS011;696;48.546;9.896;2023-06-19T15:08:26;1.85;;;1.60;;
1402;SDS011;696;48.546;9.896;2023-06-19T15:10:51;3.20;;;2.08;;
1402;SDS011;696;48.546;9.896;2023-06-19T15:13:17;2.85;;;1.52;;
1402;SDS011;696;48.546;9.896;2023-06-19T15:15:42;2.08;;;1.70;;
1402;SDS011;696;48.546;9.896;2023-06-19T15:18:09;3.05;;;1.60;;
1402;SDS011;696;48.546;9.896;2023-06-19T15:20:34;1.80;;;1.48;;
1402;SDS011;696;48.546;9.896;2023-06-19T15:23:00;2.10;;;1.73;;
1402;SDS011;696;48.546;9.896;2023-06-19T15:25:25;6.03;;;1.85;;
1402;SDS011;696;48.546;9.896;2023-06-19T15:27:51;4.00;;;1.90;;
1402;SDS011;696;48.546;9.896;2023-06-19T15:30:16;2.55;;;1.73;;
1402;SDS011;696;48.546;9.896;2023-06-19T15:32:41;2.97;;;1.65;;